createdAt,value
2019-04-20T00:01:18.656Z,9.17
2019-04-20T00:03:47.348Z,9.23
2019-04-20T00:06:21.513Z,11.90
2019-04-20T00:08:59.828Z,9.60
2019-04-20T00:11:29.566Z,10.10
2019-04-20T00:14:05.780Z,8.87
2019-04-20T00:16:29.997Z,10.60
2019-04-20T00:19:03.253Z,10.60
2019-04-20T00:21:42.725Z,9.30
2019-04-20T00:24:16.914Z,14.73
2019-04-20T00:27:10.646Z,9.63
2019-04-20T00:29:36.737Z,8.33
2019-04-20T00:31:59.167Z,9.63
2019-04-20T00:34:26.450Z,9.35
2019-04-20T00:36:52.181Z,10.53
2019-04-20T00:39:23.808Z,10.57
2019-04-20T00:42:00.429Z,9.13
2019-04-20T00:44:30.406Z,12.00
2019-04-20T00:47:08.501Z,9.13
2019-04-20T00:49:45.900Z,10.27
2019-04-20T00:54:36.940Z,11.90
2019-04-20T00:57:20.429Z,11.20
2019-04-20T00:59:59.236Z,7.37
2019-04-20T01:02:27.535Z,18.40
2019-04-20T01:05:09.248Z,13.07
2019-04-20T01:07:38.589Z,11.22
2019-04-20T01:10:13.355Z,11.33
2019-04-20T01:12:44.467Z,7.97
2019-04-20T01:15:25.589Z,10.03
2019-04-20T01:17:48.518Z,14.47
2019-04-20T01:20:19.050Z,16.73
2019-04-20T01:22:56.030Z,16.73
2019-04-20T01:25:28.347Z,16.77
2019-04-20T01:28:07.787Z,14.10
2019-04-20T01:30:37.583Z,16.73
2019-04-20T01:33:18.419Z,15.87
2019-04-20T01:35:50.910Z,13.10
2019-04-20T01:38:29.355Z,13.40
2019-04-20T01:40:40.151Z,16.00
2019-04-20T01:43:12.081Z,14.60
2019-04-20T01:45:45.459Z,15.57
2019-04-20T01:48:23.958Z,16.00
2019-04-20T01:50:59.797Z,14.23
2019-04-20T01:53:44.359Z,13.67
2019-04-20T01:56:20.200Z,18.80
2019-04-20T01:59:00.781Z,21.53
2019-04-20T02:01:29.433Z,18.87
2019-04-20T02:04:00.328Z,17.93
2019-04-20T02:06:39.878Z,16.53
2019-04-20T02:09:13.443Z,21.60
2019-04-20T02:11:42.725Z,29.67
2019-04-20T02:14:13.415Z,13.37
2019-04-20T02:16:49.129Z,15.30
2019-04-20T02:19:31.801Z,13.97
2019-04-20T02:22:03.581Z,13.93
2019-04-20T02:24:19.745Z,16.67
2019-04-20T02:26:51.868Z,17.43
2019-04-20T02:29:45.933Z,14.17
2019-04-20T02:32:42.958Z,10.90
2019-04-20T02:35:14.122Z,12.80
2019-04-20T02:37:56.722Z,19.67
2019-04-20T02:40:21.139Z,15.33
2019-04-20T02:42:51.519Z,17.17
2019-04-20T02:47:53.132Z,21.23
2019-04-20T02:50:34.222Z,18.43
2019-04-20T02:53:06.182Z,33.33
2019-04-20T02:58:05.338Z,15.37
2019-04-20T03:00:31.316Z,28.73
2019-04-20T03:02:48.670Z,15.70
2019-04-20T03:05:21.545Z,16.40
2019-04-20T03:07:57.460Z,19.93
2019-04-20T03:10:43.008Z,19.43
2019-04-20T03:13:08.809Z,18.03
2019-04-20T03:15:38.249Z,17.50
2019-04-20T03:18:11.987Z,24.13
2019-04-20T03:20:43.491Z,17.40
2019-04-20T03:23:23.279Z,16.50
2019-04-20T03:26:07.110Z,21.87
2019-04-20T03:28:50.256Z,24.13
2019-04-20T03:32:04.353Z,12.70
2019-04-20T03:36:44.025Z,15.27
2019-04-20T03:39:03.269Z,21.93
2019-04-20T03:41:24.520Z,23.57
2019-04-20T03:43:49.786Z,18.60
2019-04-20T03:46:30.920Z,18.40
2019-04-20T03:49:09.771Z,19.55
2019-04-20T03:51:53.316Z,29.05
2019-04-20T03:54:29.775Z,17.05
2019-04-20T03:57:18.398Z,13.65
2019-04-20T03:59:54.855Z,11.85
2019-04-20T04:02:37.820Z,12.63
2019-04-20T04:05:15.960Z,12.05
2019-04-20T04:07:43.759Z,29.18
2019-04-20T04:10:25.887Z,15.57
2019-04-20T04:13:03.080Z,17.90
2019-04-20T04:15:38.134Z,11.83
2019-04-20T04:18:15.664Z,11.55
2019-04-20T04:20:46.706Z,12.80
2019-04-20T04:23:33.777Z,10.90
2019-04-20T04:29:16.636Z,12.68
2019-04-20T04:29:40.014Z,10.80
2019-04-20T04:31:36.235Z,11.60
2019-04-20T04:34:16.482Z,9.48
2019-04-20T04:36:50.108Z,12.00
2019-04-20T04:39:29.471Z,10.98
2019-04-20T04:42:07.060Z,15.65
2019-04-20T04:44:23.590Z,12.82
2019-04-20T04:46:50.407Z,13.50
2019-04-20T04:49:20.826Z,9.40
2019-04-20T04:51:56.862Z,8.85
2019-04-20T04:54:28.859Z,14.30
2019-04-20T04:56:52.824Z,15.23
2019-04-20T04:59:29.681Z,17.27
2019-04-20T05:02:01.789Z,14.18
2019-04-20T05:05:11.405Z,11.12
2019-04-20T05:07:39.799Z,10.50
2019-04-20T05:10:01.256Z,10.32
2019-04-20T05:12:34.149Z,8.83
2019-04-20T05:15:13.207Z,13.88
2019-04-20T05:18:01.559Z,11.03
2019-04-20T05:20:35.565Z,10.98
2019-04-20T05:23:22.910Z,7.42
2019-04-20T05:26:13.768Z,10.43
2019-04-20T05:28:43.067Z,8.65
2019-04-20T05:31:09.732Z,7.40
2019-04-20T05:34:06.383Z,8.98
2019-04-20T05:36:31.052Z,8.98
2019-04-20T05:39:13.135Z,11.65
2019-04-20T05:41:42.916Z,9.80
2019-04-20T05:44:13.073Z,12.40
2019-04-20T05:46:59.931Z,11.30
2019-04-20T05:49:27.089Z,12.65
2019-04-20T06:07:06.028Z,11.33
2019-04-20T06:09:55.905Z,10.55
2019-04-20T06:12:25.405Z,9.38
2019-04-20T06:15:04.525Z,11.33
2019-04-20T06:18:02.495Z,9.18
2019-04-20T06:23:20.655Z,9.03
2019-04-20T06:26:03.874Z,9.60
2019-04-20T06:28:22.262Z,9.83
2019-04-20T06:30:48.109Z,7.22
2019-04-20T06:34:27.716Z,10.00
2019-04-20T06:37:06.769Z,7.92
2019-04-20T06:39:22.076Z,10.85
2019-04-20T06:42:08.400Z,5.80
2019-04-20T06:44:30.367Z,7.70
2019-04-20T06:47:04.381Z,8.27
2019-04-20T06:52:15.776Z,6.80
2019-04-20T06:55:00.283Z,6.37
2019-04-20T06:57:49.919Z,5.93
2019-04-20T07:00:11.401Z,7.53
2019-04-20T07:05:24.794Z,6.43
2019-04-20T07:08:06.778Z,6.70
2019-04-20T07:10:31.349Z,8.60
2019-04-20T07:13:01.770Z,5.50
2019-04-20T07:15:36.566Z,7.47
2019-04-20T07:18:15.690Z,6.10
2019-04-20T07:23:31.242Z,4.90
2019-04-20T07:26:12.799Z,6.33
2019-04-20T07:28:41.101Z,6.50
2019-04-20T07:31:17.198Z,5.67
2019-04-20T07:33:54.834Z,6.20
2019-04-20T07:36:30.593Z,8.90
2019-04-20T07:38:57.943Z,6.30
2019-04-20T07:41:32.970Z,3.73
2019-04-20T07:44:18.291Z,7.30
2019-04-20T07:46:47.038Z,5.00
2019-04-20T07:49:07.691Z,7.67
2019-04-20T07:51:28.282Z,6.27
2019-04-20T07:54:27.043Z,4.87
2019-04-20T07:56:47.631Z,5.70
2019-04-20T07:59:09.719Z,5.30
2019-04-20T08:02:00.627Z,5.00
2019-04-20T08:04:30.049Z,12.47
2019-04-20T08:06:50.069Z,4.13
2019-04-20T08:09:25.764Z,4.53
2019-04-20T08:12:15.406Z,4.13
2019-04-20T08:14:46.786Z,3.90
2019-04-20T08:17:20.373Z,4.33
2019-04-20T08:19:45.382Z,6.03
2019-04-20T08:22:19.782Z,4.60
2019-04-20T08:24:45.345Z,5.23
2019-04-20T08:27:09.152Z,6.47
2019-04-20T08:29:54.285Z,3.53
2019-04-20T08:32:30.704Z,4.87
2019-04-20T08:35:05.114Z,4.30
2019-04-20T08:37:40.390Z,3.37
2019-04-20T08:40:17.716Z,9.03
2019-04-20T08:42:57.189Z,5.45
2019-04-20T08:45:16.374Z,4.57
2019-04-20T08:47:56.438Z,3.73
2019-04-20T08:53:09.049Z,5.03
2019-04-20T08:55:26.654Z,4.13
2019-04-20T08:57:37.982Z,2.97
2019-04-20T09:00:11.107Z,7.83
2019-04-20T09:02:48.928Z,4.20
2019-04-20T09:05:32.958Z,5.60
2019-04-20T09:08:02.434Z,5.90
2019-04-20T09:10:42.222Z,3.83
2019-04-20T09:13:09.596Z,7.97
2019-04-20T09:15:27.875Z,5.13
2019-04-20T09:18:05.047Z,3.10
2019-04-20T09:20:45.944Z,3.83
2019-04-20T09:23:21.334Z,5.63
2019-04-20T09:26:02.429Z,2.90
2019-04-20T09:28:27.589Z,2.80
2019-04-20T09:31:09.197Z,2.57
2019-04-20T09:33:48.709Z,7.43
2019-04-20T09:36:17.889Z,3.87
2019-04-20T09:39:08.621Z,3.80
2019-04-20T09:41:57.325Z,5.07
2019-04-20T09:44:04.637Z,4.57
2019-04-20T09:46:40.171Z,3.63
2019-04-20T09:49:20.773Z,6.60
2019-04-20T09:52:05.238Z,5.20
2019-04-20T09:54:37.021Z,3.50
2019-04-20T09:57:09.106Z,3.90
2019-04-20T09:59:37.858Z,10.17
2019-04-20T10:02:03.607Z,3.70
2019-04-20T10:04:29.079Z,5.13
2019-04-20T10:07:07.871Z,5.50
2019-04-20T10:09:37.271Z,3.83
2019-04-20T10:12:03.884Z,5.73
2019-04-20T10:14:35.209Z,6.70
2019-04-20T10:17:05.822Z,5.60
2019-04-20T10:19:40.090Z,4.87
2019-04-20T10:22:14.891Z,7.40
2019-04-20T10:24:49.218Z,6.80
2019-04-20T10:27:20.997Z,6.27
2019-04-20T10:29:53.478Z,7.23
2019-04-20T10:32:34.199Z,4.00
2019-04-20T10:35:02.382Z,5.37
2019-04-20T10:37:37.756Z,4.20
2019-04-20T10:40:08.658Z,5.97
2019-04-20T10:42:41.760Z,4.83
2019-04-20T10:45:12.900Z,5.03
2019-04-20T10:47:45.188Z,3.80
2019-04-20T10:50:16.859Z,3.83
2019-04-20T10:52:49.955Z,5.67
2019-04-20T10:55:20.851Z,4.77
2019-04-20T10:57:51.482Z,8.83
2019-04-20T11:00:25.667Z,7.03
2019-04-20T11:02:57.236Z,4.27
2019-04-20T11:05:32.804Z,4.53
2019-04-20T11:08:04.347Z,4.93
2019-04-20T11:10:50.890Z,6.53
2019-04-20T11:13:09.636Z,4.33
2019-04-20T11:15:42.130Z,4.70
2019-04-20T11:18:15.639Z,3.47
2019-04-20T11:20:46.179Z,6.60
2019-04-20T11:23:16.639Z,6.20
2019-04-20T11:25:48.358Z,5.33
2019-04-20T11:28:19.922Z,6.57
2019-04-20T11:30:54.243Z,6.73
2019-04-20T11:33:36.163Z,3.53
2019-04-20T11:36:07.411Z,5.50
2019-04-20T11:38:40.805Z,4.30
2019-04-20T11:41:18.168Z,5.27
2019-04-20T11:43:43.837Z,5.60
2019-04-20T11:46:16.490Z,5.27
2019-04-20T11:48:47.634Z,4.53
2019-04-20T11:51:21.417Z,5.83
2019-04-20T11:53:54.357Z,5.73
2019-04-20T11:56:29.412Z,5.47
2019-04-20T11:58:59.236Z,6.47
2019-04-20T12:01:47.960Z,5.17
2019-04-20T12:04:26.142Z,7.00
2019-04-20T12:06:49.218Z,6.03
2019-04-20T12:09:19.654Z,4.80
2019-04-20T12:12:05.769Z,4.23
2019-04-20T12:14:22.926Z,4.40
2019-04-20T12:16:53.579Z,6.13
2019-04-20T12:19:27.013Z,4.43
2019-04-20T12:21:56.299Z,4.43
2019-04-20T12:24:26.748Z,6.07
2019-04-20T12:26:58.691Z,5.83
2019-04-20T12:29:29.928Z,6.08
2019-04-20T12:32:03.498Z,4.47
2019-04-20T12:34:34.985Z,9.87
2019-04-20T12:37:07.441Z,4.83
2019-04-20T12:39:37.823Z,5.27
2019-04-20T12:42:14.724Z,4.73
2019-04-20T12:44:48.446Z,4.10
2019-04-20T12:47:21.376Z,4.87
2019-04-20T12:49:52.063Z,6.70
2019-04-20T12:52:26.260Z,8.50
2019-04-20T12:55:00.857Z,4.03
2019-04-20T12:57:32.284Z,5.00
2019-04-20T13:00:17.306Z,5.33
2019-04-20T13:02:49.418Z,4.90
2019-04-20T13:05:22.172Z,7.30
2019-04-20T13:07:59.338Z,6.40
2019-04-20T13:10:29.678Z,4.70
2019-04-20T13:13:12.397Z,3.93
2019-04-20T13:15:44.615Z,3.27
2019-04-20T13:18:25.399Z,5.37
2019-04-20T13:20:57.949Z,5.27
2019-04-20T13:23:28.974Z,5.03
2019-04-20T13:26:07.415Z,4.37
2019-04-20T13:28:43.292Z,5.10
2019-04-20T13:31:22.471Z,4.85
2019-04-20T13:33:53.008Z,4.47
2019-04-20T13:36:28.470Z,4.03
2019-04-20T13:39:03.888Z,5.00
2019-04-20T13:41:35.716Z,5.10
2019-04-20T13:44:06.606Z,4.80
2019-04-20T13:46:37.183Z,6.90
2019-04-20T13:49:13.257Z,3.77
2019-04-20T13:51:44.595Z,3.07
2019-04-20T13:54:19.442Z,4.83
2019-04-20T13:56:52.184Z,4.87
2019-04-20T13:59:44.962Z,3.37
2019-04-20T14:02:17.151Z,3.67
2019-04-20T14:04:51.107Z,4.77
2019-04-20T14:07:24.749Z,4.63
2019-04-20T14:09:55.440Z,4.15
2019-04-20T14:12:32.417Z,5.20
2019-04-20T14:14:59.364Z,4.27
2019-04-20T14:17:30.876Z,5.60
2019-04-20T14:20:07.385Z,4.37
2019-04-20T14:22:34.063Z,4.57
2019-04-20T14:25:06.938Z,3.57
2019-04-20T14:27:39.066Z,3.07
2019-04-20T14:30:12.994Z,6.17
2019-04-20T14:32:44.951Z,5.07
2019-04-20T14:35:16.738Z,5.13
2019-04-20T14:37:47.822Z,3.40
2019-04-20T14:40:22.078Z,6.77
2019-04-20T14:42:55.102Z,9.93
2019-04-20T14:45:27.148Z,4.17
2019-04-20T14:47:59.533Z,6.43
2019-04-20T14:50:31.653Z,5.43
2019-04-20T14:53:02.215Z,3.67
2019-04-20T14:55:33.426Z,5.13
2019-04-20T14:58:05.878Z,6.00
2019-04-20T15:00:53.075Z,5.17
2019-04-20T15:03:26.661Z,3.43
2019-04-20T15:06:00.013Z,3.83
2019-04-20T15:08:44.968Z,7.43
2019-04-20T15:11:16.745Z,4.53
2019-04-20T15:13:50.944Z,4.13
2019-04-20T15:16:28.714Z,5.10
2019-04-20T15:19:05.289Z,4.23
2019-04-20T15:21:45.409Z,4.93
2019-04-20T15:24:17.708Z,4.73
2019-04-20T15:26:48.773Z,5.10
2019-04-20T15:29:20.152Z,6.33
2019-04-20T15:31:52.174Z,6.83
2019-04-20T15:34:22.694Z,4.23
2019-04-20T15:36:54.072Z,3.60
2019-04-20T15:39:27.323Z,5.50
2019-04-20T15:41:59.094Z,4.90
2019-04-20T15:44:31.316Z,6.20
2019-04-20T15:47:01.917Z,8.93
2019-04-20T15:49:35.850Z,6.67
2019-04-20T15:52:19.917Z,6.50
2019-04-20T15:54:47.598Z,7.00
2019-04-20T15:57:22.962Z,6.93
2019-04-20T15:59:50.604Z,9.07
2019-04-20T16:02:29.615Z,5.57
2019-04-20T16:08:21.514Z,6.83
2019-04-20T16:10:59.267Z,7.17
2019-04-20T16:13:44.110Z,5.23
2019-04-20T16:16:12.104Z,7.13
2019-04-20T16:18:45.190Z,8.87
2019-04-20T16:21:21.928Z,6.30
2019-04-20T16:23:52.645Z,9.43
2019-04-20T16:26:25.913Z,10.40
2019-04-20T16:29:04.187Z,8.90
2019-04-20T16:31:33.875Z,7.73
2019-04-20T16:34:07.680Z,10.80
2019-04-20T16:36:38.856Z,16.73
2019-04-20T16:39:11.120Z,13.30
2019-04-20T16:44:47.610Z,9.03
2019-04-20T16:47:30.744Z,13.80
2019-04-20T16:50:01.447Z,12.77
2019-04-20T16:52:34.827Z,14.80
2019-04-20T16:55:08.106Z,17.93
2019-04-20T16:57:39.703Z,20.20
2019-04-20T17:00:16.045Z,35.30
2019-04-20T17:02:47.951Z,23.50
2019-04-20T17:05:18.924Z,27.33
2019-04-20T17:08:00.701Z,30.17
2019-04-20T17:10:32.768Z,26.80
2019-04-20T17:13:06.367Z,24.97
2019-04-20T17:15:39.318Z,24.87
2019-04-20T17:18:15.875Z,26.23
2019-04-20T17:21:16.702Z,30.37
2019-04-20T17:23:43.924Z,34.25
2019-04-20T17:26:16.914Z,34.23
2019-04-20T17:29:01.750Z,34.67
2019-04-20T17:31:49.361Z,41.67
2019-04-20T17:34:41.513Z,34.97
2019-04-20T17:36:54.878Z,35.10
2019-04-20T17:39:31.116Z,41.83
2019-04-20T17:42:17.513Z,32.67
2019-04-20T17:44:46.906Z,32.30
2019-04-20T17:47:28.901Z,27.40
2019-04-20T17:49:59.745Z,37.37
2019-04-20T17:52:36.965Z,29.97
2019-04-20T17:54:49.562Z,41.27
2019-04-20T17:57:21.576Z,40.12
2019-04-20T17:59:58.653Z,38.67
2019-04-20T18:02:53.574Z,39.97
2019-04-20T18:05:37.127Z,49.93
2019-04-20T18:08:13.324Z,40.23
2019-04-20T18:10:58.815Z,36.93
2019-04-20T18:13:25.421Z,33.13
2019-04-20T18:16:22.403Z,34.40
2019-04-20T18:18:59.539Z,33.80
2019-04-20T18:21:26.726Z,42.60
2019-04-20T18:23:58.246Z,41.13
2019-04-20T18:26:48.045Z,44.40
2019-04-20T18:29:26.125Z,48.87
2019-04-20T18:31:47.290Z,43.47
2019-04-20T18:34:27.419Z,51.07
2019-04-20T18:37:00.617Z,42.23
2019-04-20T18:39:40.089Z,42.53
2019-04-20T18:42:10.137Z,47.77
2019-04-20T18:45:02.584Z,47.93
2019-04-20T18:47:33.564Z,36.13
2019-04-20T18:50:01.209Z,39.70
2019-04-20T18:52:23.932Z,35.57
2019-04-20T18:54:57.574Z,39.17
2019-04-20T18:57:29.637Z,34.97
2019-04-20T19:00:07.894Z,38.85
2019-04-20T19:02:48.907Z,44.87
2019-04-20T19:05:15.853Z,52.93
2019-04-20T19:07:55.674Z,56.40
2019-04-20T19:10:27.150Z,53.73
2019-04-20T19:12:59.950Z,39.00
2019-04-20T19:15:43.889Z,61.40
2019-04-20T19:18:11.514Z,34.53
2019-04-20T19:20:39.123Z,46.27
2019-04-20T19:23:10.338Z,44.23
2019-04-20T19:25:42.458Z,40.87
2019-04-20T19:28:14.516Z,42.73
2019-04-20T19:31:00.296Z,31.77
2019-04-20T19:33:37.709Z,33.83
2019-04-20T19:36:09.236Z,38.13
2019-04-20T19:38:37.947Z,38.58
2019-04-20T19:41:16.431Z,41.90
2019-04-20T19:43:45.817Z,39.83
2019-04-20T19:46:39.595Z,36.80
2019-04-20T19:48:48.655Z,28.27
2019-04-20T19:51:28.522Z,34.20
2019-04-20T19:53:59.816Z,40.57
2019-04-20T19:56:33.614Z,37.47
2019-04-20T19:59:01.167Z,34.17
2019-04-20T20:01:17.726Z,31.23
2019-04-20T20:03:57.491Z,30.13
2019-04-20T20:06:29.091Z,29.10
2019-04-20T20:08:57.974Z,36.00
2019-04-20T20:11:34.046Z,34.50
2019-04-20T20:14:04.269Z,34.13
2019-04-20T20:16:55.108Z,31.77
2019-04-20T20:19:12.163Z,30.20
2019-04-20T20:22:00.267Z,33.83
2019-04-20T20:24:17.602Z,34.13
2019-04-20T20:26:53.417Z,28.37
2019-04-20T20:29:28.358Z,31.90
2019-04-20T20:32:08.477Z,52.53
2019-04-20T20:34:32.625Z,31.23
2019-04-20T20:37:04.305Z,32.43
2019-04-20T20:39:34.396Z,24.03
2019-04-20T20:42:15.602Z,31.27
2019-04-20T20:44:45.267Z,34.73
2019-04-20T20:47:31.728Z,40.07
2019-04-20T20:50:08.675Z,50.43
2019-04-20T20:52:27.549Z,76.07
2019-04-20T20:54:56.534Z,45.60
2019-04-20T20:57:22.361Z,39.53
2019-04-20T20:59:55.334Z,36.53
2019-04-20T21:02:33.686Z,32.67
2019-04-20T21:04:53.541Z,24.07
2019-04-20T21:07:24.724Z,30.77
2019-04-20T21:09:56.465Z,25.37
2019-04-20T21:12:36.965Z,30.23
2019-04-20T21:15:08.830Z,29.07
2019-04-20T21:18:03.347Z,30.00
2019-04-20T21:20:20.365Z,34.13
2019-04-20T21:22:58.495Z,27.23
2019-04-20T21:25:32.883Z,22.80
2019-04-20T21:27:57.035Z,27.90
2019-04-20T21:30:34.986Z,27.43
2019-04-20T21:33:03.419Z,31.90
2019-04-20T21:35:39.354Z,29.53
2019-04-20T21:38:08.029Z,24.80
2019-04-20T21:40:39.956Z,29.30
2019-04-20T21:43:09.492Z,35.37
2019-04-20T21:45:48.444Z,37.90
2019-04-20T21:48:31.746Z,30.73
2019-04-20T21:51:07.072Z,27.10
2019-04-20T21:53:25.069Z,28.90
2019-04-20T21:55:52.010Z,51.77
2019-04-20T21:58:28.058Z,25.17
2019-04-20T22:01:05.059Z,24.20
2019-04-20T22:03:27.544Z,30.60
2019-04-20T22:06:06.854Z,26.73
2019-04-20T22:08:39.333Z,26.20
2019-04-20T22:11:09.881Z,29.43
2019-04-20T22:13:43.616Z,21.63
2019-04-20T22:16:14.320Z,28.03
2019-04-20T22:18:54.400Z,34.63
2019-04-20T22:21:26.569Z,23.40
2019-04-20T22:24:05.500Z,23.63
2019-04-20T22:26:31.894Z,23.27
2019-04-20T22:28:54.158Z,26.52
2019-04-20T22:31:26.289Z,24.37
2019-04-20T22:34:00.788Z,20.93
2019-04-20T22:36:34.120Z,23.97
2019-04-20T22:39:09.610Z,25.83
2019-04-20T22:41:53.663Z,25.57
2019-04-20T22:44:21.005Z,22.57
2019-04-20T22:46:50.100Z,21.87
2019-04-20T22:49:35.975Z,25.10
2019-04-20T22:51:59.511Z,22.93
2019-04-20T22:54:39.723Z,24.60
2019-04-20T22:57:11.896Z,24.87
2019-04-20T22:59:44.740Z,30.77
2019-04-20T23:02:07.570Z,24.63
2019-04-20T23:04:37.098Z,24.33
2019-04-20T23:07:08.552Z,28.63
2019-04-20T23:09:45.914Z,22.47
2019-04-20T23:12:15.798Z,25.23
2019-04-20T23:14:44.588Z,28.20
2019-04-20T23:17:18.104Z,33.73
2019-04-20T23:19:52.842Z,22.53
2019-04-20T23:22:20.930Z,27.07
2019-04-20T23:24:51.444Z,25.13
2019-04-20T23:27:26.369Z,25.70
2019-04-20T23:29:55.139Z,37.77
2019-04-20T23:32:28.653Z,32.97
2019-04-20T23:35:05.943Z,29.97
2019-04-20T23:37:33.077Z,47.45
2019-04-20T23:40:03.085Z,45.50
2019-04-20T23:42:44.539Z,39.33
2019-04-20T23:45:26.930Z,46.57
2019-04-20T23:48:04.303Z,44.50
2019-04-20T23:50:47.568Z,39.10
2019-04-20T23:53:25.943Z,37.03
2019-04-20T23:55:36.889Z,36.37
2019-04-20T23:58:10.529Z,34.13
